createdAt,value
2017-09-13T00:02:25.642Z,95.29
2017-09-13T00:04:53.423Z,95.39
2017-09-13T00:07:22.004Z,95.53
2017-09-13T00:09:49.741Z,95.61
2017-09-13T00:12:17.439Z,95.61
2017-09-13T00:14:45.173Z,95.60
2017-09-13T00:17:12.887Z,95.58
2017-09-13T00:19:40.567Z,95.56
2017-09-13T00:22:08.290Z,95.58
2017-09-13T00:24:35.980Z,95.77
2017-09-13T00:27:03.736Z,95.83
2017-09-13T00:29:31.452Z,95.86
2017-09-13T00:31:59.201Z,95.95
2017-09-13T00:34:26.940Z,96.02
2017-09-13T00:36:54.692Z,96.06
2017-09-13T00:39:22.401Z,96.03
2017-09-13T00:41:50.132Z,96.00
2017-09-13T00:44:17.842Z,95.98
2017-09-13T00:46:45.519Z,95.98
2017-09-13T00:49:13.208Z,96.04
2017-09-13T00:51:40.960Z,96.07
2017-09-13T00:54:08.582Z,96.12
2017-09-13T00:56:36.406Z,96.17
2017-09-13T00:59:04.139Z,96.22
2017-09-13T01:01:31.880Z,96.24
2017-09-13T01:03:59.564Z,96.29
2017-09-13T01:06:27.298Z,96.27
2017-09-13T01:08:54.999Z,96.25
2017-09-13T01:11:22.746Z,96.22
2017-09-13T01:13:50.448Z,96.27
2017-09-13T01:16:18.193Z,96.32
2017-09-13T01:18:45.904Z,96.37
2017-09-13T01:21:13.619Z,96.38
2017-09-13T01:23:41.319Z,96.38
2017-09-13T01:26:09.056Z,96.40
2017-09-13T01:28:36.775Z,96.42
2017-09-13T01:31:04.516Z,96.47
2017-09-13T01:33:32.263Z,96.46
2017-09-13T01:36:00.023Z,96.42
2017-09-13T01:38:27.706Z,96.43
2017-09-13T01:40:55.440Z,96.50
2017-09-13T01:43:23.127Z,96.54
2017-09-13T01:45:50.878Z,96.61
2017-09-13T01:48:18.576Z,96.67
2017-09-13T01:50:46.310Z,96.75
2017-09-13T01:53:14.022Z,96.80
2017-09-13T01:55:41.749Z,96.83
2017-09-13T01:58:09.432Z,96.84
2017-09-13T02:00:37.175Z,96.81
2017-09-13T02:03:04.865Z,96.78
2017-09-13T02:05:32.623Z,96.74
2017-09-13T02:08:00.342Z,96.68
2017-09-13T02:10:28.050Z,96.63
2017-09-13T02:12:55.781Z,96.59
2017-09-13T02:15:23.496Z,96.56
2017-09-13T02:17:51.266Z,96.52
2017-09-13T02:20:18.959Z,96.54
2017-09-13T02:22:46.683Z,96.53
2017-09-13T02:25:14.399Z,96.51
2017-09-13T02:27:42.145Z,96.50
2017-09-13T02:30:09.836Z,96.48
2017-09-13T02:32:37.632Z,96.49
2017-09-13T02:35:05.332Z,96.45
2017-09-13T02:37:33.066Z,96.39
2017-09-13T02:40:00.787Z,96.35
2017-09-13T02:42:28.522Z,96.29
2017-09-13T02:44:56.230Z,96.27
2017-09-13T02:47:23.907Z,96.28
2017-09-13T02:49:51.619Z,96.31
2017-09-13T02:52:19.362Z,96.34
2017-09-13T02:54:47.086Z,96.39
2017-09-13T02:57:14.841Z,96.41
2017-09-13T02:59:42.529Z,96.37
2017-09-13T03:02:10.269Z,96.36
2017-09-13T03:04:37.969Z,96.36
2017-09-13T03:07:05.730Z,96.37
2017-09-13T03:09:33.449Z,96.30
2017-09-13T03:12:01.194Z,96.26
2017-09-13T03:14:28.896Z,96.22
2017-09-13T03:16:56.635Z,96.15
2017-09-13T03:19:24.369Z,96.11
2017-09-13T03:21:52.120Z,96.11
2017-09-13T03:24:19.824Z,96.07
2017-09-13T03:26:47.587Z,96.04
2017-09-13T03:29:15.283Z,96.00
2017-09-13T03:31:43.021Z,95.96
2017-09-13T03:34:10.781Z,95.87
2017-09-13T03:36:38.539Z,95.75
2017-09-13T03:39:06.233Z,95.73
2017-09-13T03:41:33.974Z,95.67
2017-09-13T03:44:01.677Z,95.62
2017-09-13T03:46:29.448Z,95.59
2017-09-13T03:48:57.167Z,95.57
2017-09-13T03:51:24.923Z,95.51
2017-09-13T03:53:52.575Z,95.46
2017-09-13T03:56:20.290Z,95.46
2017-09-13T03:58:48.080Z,95.35
2017-09-13T04:01:15.806Z,95.29
2017-09-13T04:03:43.577Z,95.24
2017-09-13T04:06:11.308Z,95.23
2017-09-13T04:08:39.032Z,95.16
2017-09-13T04:11:06.741Z,95.02
2017-09-13T04:13:34.501Z,94.95
2017-09-13T04:16:02.190Z,94.86
2017-09-13T04:18:30.006Z,94.80
2017-09-13T04:20:57.718Z,94.68
2017-09-13T04:23:25.439Z,94.68
2017-09-13T04:25:53.146Z,94.65
2017-09-13T04:28:20.955Z,94.54
2017-09-13T04:30:48.624Z,94.51
2017-09-13T04:33:16.413Z,94.50
2017-09-13T04:35:44.119Z,94.39
2017-09-13T04:38:11.884Z,94.43
2017-09-13T04:40:39.619Z,94.11
2017-09-13T04:43:07.383Z,94.18
2017-09-13T04:45:35.076Z,94.26
2017-09-13T04:48:02.842Z,94.13
2017-09-13T04:50:30.535Z,94.00
2017-09-13T04:52:58.206Z,93.85
2017-09-13T04:55:25.921Z,94.14
2017-09-13T04:57:53.660Z,94.28
2017-09-13T05:00:21.364Z,94.38
2017-09-13T05:02:49.144Z,94.54
2017-09-13T05:05:16.836Z,94.68
2017-09-13T05:07:44.583Z,94.77
2017-09-13T05:10:12.302Z,94.94
2017-09-13T05:12:40.047Z,95.01
2017-09-13T05:15:07.707Z,95.18
2017-09-13T05:17:35.438Z,95.30
2017-09-13T05:20:03.137Z,95.40
2017-09-13T05:22:30.893Z,95.54
2017-09-13T05:24:58.584Z,95.70
2017-09-13T05:27:26.349Z,95.76
2017-09-13T05:29:54.055Z,95.78
2017-09-13T05:32:21.806Z,95.87
2017-09-13T05:34:49.532Z,95.89
2017-09-13T05:37:17.288Z,95.90
2017-09-13T05:39:45.702Z,95.90
2017-09-13T05:42:13.453Z,95.94
2017-09-13T05:44:42.507Z,95.99
2017-09-13T05:47:10.714Z,95.97
2017-09-13T05:49:38.912Z,96.11
2017-09-13T05:52:07.868Z,96.10
2017-09-13T05:54:37.206Z,96.11
2017-09-13T05:57:07.431Z,96.03
2017-09-13T05:59:36.367Z,96.05
2017-09-13T06:02:04.757Z,96.14
2017-09-13T06:04:34.127Z,96.17
2017-09-13T06:07:02.657Z,95.99
2017-09-13T06:09:30.689Z,96.02
2017-09-13T06:11:58.490Z,96.11
2017-09-13T06:14:27.062Z,96.17
2017-09-13T06:16:56.912Z,96.24
2017-09-13T06:19:26.067Z,96.36
2017-09-13T06:21:55.423Z,96.32
2017-09-13T06:24:23.180Z,96.42
2017-09-13T06:26:52.414Z,96.35
2017-09-13T06:31:54.212Z,96.21
2017-09-13T06:34:22.400Z,96.40
2017-09-13T06:36:51.185Z,96.40
2017-09-13T06:39:19.356Z,96.33
2017-09-13T06:41:47.719Z,96.39
2017-09-13T06:44:15.489Z,96.49
2017-09-13T06:46:45.925Z,96.57
2017-09-13T06:49:14.911Z,96.60
2017-09-13T06:51:44.244Z,96.59
2017-09-13T06:54:13.097Z,96.50
2017-09-13T06:56:41.743Z,96.58
2017-09-13T06:59:11.986Z,96.54
2017-09-13T07:01:40.566Z,96.39
2017-09-13T07:04:08.571Z,96.46
2017-09-13T07:06:37.161Z,96.39
2017-09-13T07:09:06.677Z,96.30
2017-09-13T07:11:35.472Z,96.25
2017-09-13T07:14:04.653Z,96.39
2017-09-13T07:16:32.493Z,96.53
2017-09-13T07:19:00.314Z,96.54
2017-09-13T07:21:27.910Z,96.53
2017-09-13T07:23:55.964Z,96.57
2017-09-13T07:26:25.443Z,96.62
2017-09-13T07:28:53.219Z,96.74
2017-09-13T07:31:22.675Z,96.71
2017-09-13T07:33:50.848Z,96.84
2017-09-13T07:36:19.784Z,96.88
2017-09-13T07:38:48.137Z,96.88
2017-09-13T07:41:16.340Z,96.95
2017-09-13T07:43:45.149Z,96.82
2017-09-13T07:46:14.385Z,96.79
2017-09-13T07:48:42.249Z,96.74
2017-09-13T07:51:10.215Z,96.72
2017-09-13T07:53:39.833Z,96.74
2017-09-13T07:56:08.495Z,96.81
2017-09-13T07:58:36.244Z,96.73
2017-09-13T08:01:03.951Z,96.74
2017-09-13T08:03:32.189Z,96.71
2017-09-13T08:06:00.221Z,96.67
2017-09-13T08:08:28.388Z,96.62
2017-09-13T08:10:56.096Z,96.55
2017-09-13T08:13:24.237Z,96.31
2017-09-13T08:15:52.079Z,95.97
2017-09-13T08:18:20.935Z,95.74
2017-09-13T08:20:49.124Z,95.77
2017-09-13T08:23:18.054Z,95.74
2017-09-13T08:25:46.298Z,95.63
2017-09-13T08:28:15.555Z,95.42
2017-09-13T08:30:44.540Z,95.34
2017-09-13T08:33:13.180Z,95.34
2017-09-13T08:35:40.998Z,95.24
2017-09-13T08:38:09.631Z,95.42
2017-09-13T08:40:38.291Z,95.37
2017-09-13T08:43:06.301Z,94.88
2017-09-13T08:45:34.066Z,94.55
2017-09-13T08:48:02.207Z,94.37
2017-09-13T08:50:30.683Z,94.42
2017-09-13T08:52:59.851Z,94.66
2017-09-13T08:55:28.657Z,94.71
2017-09-13T08:57:56.379Z,94.66
2017-09-13T09:00:24.629Z,94.42
2017-09-13T09:05:27.929Z,93.43
2017-09-13T09:07:57.785Z,92.87
2017-09-13T09:10:25.591Z,92.70
2017-09-13T09:12:53.327Z,92.43
2017-09-13T09:15:21.573Z,92.31
2017-09-13T09:17:49.975Z,91.94
2017-09-13T09:20:18.823Z,91.66
2017-09-13T09:22:47.595Z,92.09
2017-09-13T09:25:20.413Z,92.06
2017-09-13T09:27:48.717Z,91.97
2017-09-13T09:30:18.608Z,92.05
2017-09-13T09:32:46.835Z,91.33
2017-09-13T09:35:15.102Z,91.27
2017-09-13T09:37:43.926Z,91.33
2017-09-13T09:40:15.194Z,91.52
2017-09-13T09:42:43.686Z,92.02
2017-09-13T09:45:11.491Z,92.40
2017-09-13T09:47:40.485Z,92.62
2017-09-13T09:50:09.332Z,92.36
2017-09-13T09:52:37.699Z,92.86
2017-09-13T09:55:06.256Z,92.64
2017-09-13T09:57:34.639Z,92.52
2017-09-13T10:00:02.507Z,92.34
2017-09-13T10:02:30.826Z,92.24
2017-09-13T10:04:59.334Z,92.01
2017-09-13T10:07:27.061Z,92.16
2017-09-13T10:09:57.305Z,91.27
2017-09-13T10:12:25.311Z,91.41
2017-09-13T10:14:58.551Z,91.33
2017-09-13T10:17:27.175Z,91.45
2017-09-13T10:19:55.687Z,91.86
2017-09-13T10:22:27.324Z,91.06
2017-09-13T10:24:55.938Z,90.30
2017-09-13T10:27:23.766Z,89.91
2017-09-13T10:29:52.900Z,89.98
2017-09-13T10:32:20.884Z,89.65
2017-09-13T10:34:48.676Z,90.19
2017-09-13T10:37:16.389Z,90.65
2017-09-13T10:39:44.802Z,89.81
2017-09-13T10:42:13.047Z,89.12
2017-09-13T10:44:41.231Z,88.67
2017-09-13T10:47:10.351Z,88.39
2017-09-13T10:49:39.758Z,87.51
2017-09-13T10:52:08.148Z,88.02
2017-09-13T10:54:37.528Z,87.65
2017-09-13T10:57:09.468Z,88.15
2017-09-13T10:59:38.718Z,88.71
2017-09-13T11:02:06.415Z,88.93
2017-09-13T11:04:34.664Z,89.51
2017-09-13T11:07:03.332Z,89.41
2017-09-13T11:09:32.172Z,88.30
2017-09-13T11:12:00.205Z,88.42
2017-09-13T11:14:28.011Z,87.57
2017-09-13T11:16:56.689Z,86.50
2017-09-13T11:19:25.092Z,87.13
2017-09-13T11:21:53.472Z,85.73
2017-09-13T11:24:22.120Z,84.51
2017-09-13T11:26:50.574Z,81.83
2017-09-13T11:29:19.481Z,82.32
2017-09-13T11:31:47.610Z,80.68
2017-09-13T11:34:15.353Z,80.28
2017-09-13T11:36:44.334Z,80.81
2017-09-13T11:39:12.419Z,81.10
2017-09-13T11:41:40.909Z,82.71
2017-09-13T11:44:10.237Z,83.87
2017-09-13T11:46:38.401Z,85.19
2017-09-13T11:49:06.148Z,87.04
2017-09-13T11:51:35.677Z,86.76
2017-09-13T11:54:07.791Z,86.11
2017-09-13T11:56:37.576Z,84.85
2017-09-13T11:59:10.833Z,85.55
2017-09-13T12:01:40.181Z,83.84
2017-09-13T12:04:08.491Z,81.71
2017-09-13T12:06:37.132Z,80.83
2017-09-13T12:09:05.222Z,80.11
2017-09-13T12:11:35.409Z,79.08
2017-09-13T12:14:05.225Z,79.35
2017-09-13T12:16:34.260Z,77.05
2017-09-13T12:19:03.776Z,77.47
2017-09-13T12:21:32.877Z,76.69
2017-09-13T12:24:00.542Z,77.01
2017-09-13T12:26:28.315Z,76.79
2017-09-13T12:28:56.415Z,79.40
2017-09-13T12:31:24.580Z,82.14
2017-09-13T12:33:52.373Z,82.97
2017-09-13T12:36:20.592Z,84.89
2017-09-13T12:38:49.497Z,85.82
2017-09-13T12:41:17.340Z,87.01
2017-09-13T12:43:46.527Z,88.00
2017-09-13T12:46:14.365Z,89.67
2017-09-13T12:48:43.833Z,89.11
2017-09-13T12:51:11.656Z,88.87
2017-09-13T12:53:39.709Z,89.54
2017-09-13T12:56:10.646Z,89.19
2017-09-13T12:58:40.463Z,88.08
2017-09-13T13:01:09.537Z,87.83
2017-09-13T13:03:39.570Z,87.39
2017-09-13T13:06:07.369Z,84.99
2017-09-13T13:08:37.330Z,84.26
2017-09-13T13:11:05.109Z,83.80
2017-09-13T13:13:34.003Z,81.58
2017-09-13T13:16:02.648Z,80.04
2017-09-13T13:18:30.898Z,79.50
2017-09-13T13:20:59.524Z,79.83
2017-09-13T13:23:28.036Z,78.84
2017-09-13T13:25:56.807Z,77.23
2017-09-13T13:28:25.286Z,76.90
2017-09-13T13:30:53.369Z,74.49
2017-09-13T13:33:21.533Z,73.59
2017-09-13T13:35:50.493Z,73.38
2017-09-13T13:38:20.879Z,75.12
2017-09-13T13:40:48.515Z,72.69
2017-09-13T13:43:16.623Z,71.86
2017-09-13T13:45:45.075Z,69.28
2017-09-13T13:48:13.895Z,69.87
2017-09-13T13:50:43.727Z,71.00
2017-09-13T13:53:12.262Z,71.70
2017-09-13T13:55:39.955Z,72.49
2017-09-13T13:58:08.723Z,73.51
2017-09-13T14:00:37.277Z,75.06
2017-09-13T14:03:05.271Z,73.04
2017-09-13T14:05:33.793Z,73.18
2017-09-13T14:08:01.552Z,72.18
2017-09-13T14:10:31.356Z,70.64
2017-09-13T14:12:59.367Z,69.20
2017-09-13T14:15:28.910Z,69.14
2017-09-13T14:17:58.245Z,71.10
2017-09-13T14:20:27.990Z,72.10
2017-09-13T14:22:58.012Z,71.22
2017-09-13T14:25:28.686Z,72.20
2017-09-13T14:27:56.866Z,73.66
2017-09-13T14:30:24.688Z,73.53
2017-09-13T14:32:54.004Z,74.46
2017-09-13T14:35:23.275Z,73.43
2017-09-13T14:37:51.469Z,74.34
2017-09-13T14:40:19.602Z,74.00
2017-09-13T14:42:48.787Z,73.30
2017-09-13T14:45:16.922Z,72.64
2017-09-13T14:47:45.251Z,72.36
2017-09-13T14:50:13.942Z,71.46
2017-09-13T14:52:42.609Z,71.07
2017-09-13T14:55:12.030Z,71.02
2017-09-13T14:57:39.866Z,69.96
2017-09-13T15:02:42.549Z,69.43
2017-09-13T15:05:10.268Z,68.64
2017-09-13T15:07:38.085Z,69.82
2017-09-13T15:10:05.803Z,69.97
2017-09-13T15:12:34.946Z,71.67
2017-09-13T15:15:03.564Z,72.10
2017-09-13T15:17:32.419Z,72.25
2017-09-13T15:20:01.924Z,70.49
2017-09-13T15:22:31.538Z,71.40
2017-09-13T15:25:03.219Z,73.14
2017-09-13T15:27:32.362Z,72.67
2017-09-13T15:30:02.136Z,73.13
2017-09-13T15:32:31.735Z,74.15
2017-09-13T15:35:01.500Z,73.25
2017-09-13T15:42:36.822Z,70.26
2017-09-13T15:45:04.656Z,69.12
2017-09-13T15:47:34.586Z,69.85
2017-09-13T15:50:03.470Z,70.14
2017-09-13T15:52:32.281Z,69.04
2017-09-13T15:55:01.466Z,69.06
2017-09-13T15:57:31.488Z,68.08
2017-09-13T15:59:59.203Z,68.22
2017-09-13T16:02:30.878Z,67.50
2017-09-13T16:05:03.513Z,67.67
2017-09-13T16:07:31.248Z,66.80
2017-09-13T16:10:00.508Z,67.85
2017-09-13T16:12:28.632Z,69.14
2017-09-13T16:14:59.883Z,68.80
2017-09-13T16:17:28.056Z,69.17
2017-09-13T16:19:57.170Z,70.27
2017-09-13T16:22:26.022Z,71.39
2017-09-13T16:24:54.328Z,71.95
2017-09-13T16:27:23.587Z,70.56
2017-09-13T16:29:52.655Z,69.78
2017-09-13T16:32:20.655Z,69.73
2017-09-13T16:34:49.297Z,68.81
2017-09-13T16:37:19.826Z,68.56
2017-09-13T16:39:48.379Z,68.19
2017-09-13T16:42:16.138Z,68.11
2017-09-13T16:44:43.974Z,67.60
2017-09-13T16:47:14.203Z,67.20
2017-09-13T16:49:43.218Z,68.06
2017-09-13T16:52:11.648Z,68.16
2017-09-13T16:54:40.696Z,67.84
2017-09-13T16:57:08.534Z,67.44
2017-09-13T16:59:36.256Z,66.93
2017-09-13T17:02:03.984Z,66.88
2017-09-13T17:04:32.244Z,67.13
2017-09-13T17:07:03.534Z,67.21
2017-09-13T17:09:31.654Z,68.17
2017-09-13T17:12:01.631Z,67.67
2017-09-13T17:14:31.295Z,67.71
2017-09-13T17:16:58.984Z,67.57
2017-09-13T17:19:27.978Z,67.44
2017-09-13T17:21:55.832Z,68.24
2017-09-13T17:24:23.926Z,69.28
2017-09-13T17:26:51.637Z,69.49
2017-09-13T17:29:20.356Z,70.44
2017-09-13T17:31:49.365Z,70.90
2017-09-13T17:34:18.665Z,71.13
2017-09-13T17:36:48.917Z,71.53
2017-09-13T17:39:17.327Z,72.16
2017-09-13T17:41:46.769Z,72.93
2017-09-13T17:44:14.760Z,73.06
2017-09-13T17:46:42.853Z,73.94
2017-09-13T17:49:13.880Z,74.09
2017-09-13T17:51:41.968Z,74.80
2017-09-13T17:54:13.827Z,75.52
2017-09-13T17:59:15.402Z,76.46
2017-09-13T18:01:44.195Z,76.24
2017-09-13T18:04:12.234Z,75.93
2017-09-13T18:06:42.514Z,76.31
2017-09-13T18:11:44.533Z,77.04
2017-09-13T18:16:47.506Z,78.49
2017-09-13T18:19:16.642Z,79.13
2017-09-13T18:21:45.232Z,79.07
2017-09-13T18:24:14.888Z,79.96
2017-09-13T18:26:43.177Z,80.41
2017-09-13T18:29:12.352Z,80.37
2017-09-13T18:31:41.491Z,80.57
2017-09-13T18:34:09.742Z,80.76
2017-09-13T18:36:38.623Z,80.28
2017-09-13T18:39:06.403Z,80.43
2017-09-13T18:41:34.884Z,79.75
2017-09-13T18:44:02.994Z,79.67
2017-09-13T18:46:33.025Z,79.82
2017-09-13T18:49:01.723Z,80.06
2017-09-13T18:51:30.475Z,80.45
2017-09-13T18:53:59.139Z,80.35
2017-09-13T18:56:32.370Z,80.13
2017-09-13T18:59:00.228Z,79.59
2017-09-13T19:01:28.687Z,79.09
2017-09-13T19:04:02.059Z,78.92
2017-09-13T19:06:35.778Z,78.89
2017-09-13T19:09:03.984Z,78.61
2017-09-13T19:11:33.275Z,78.22
2017-09-13T19:14:04.815Z,77.72
2017-09-13T19:16:34.023Z,76.84
2017-09-13T19:19:01.769Z,76.19
2017-09-13T19:21:31.283Z,75.80
2017-09-13T19:23:59.341Z,74.62
2017-09-13T19:26:32.666Z,73.72
2017-09-13T19:29:03.045Z,73.01
2017-09-13T19:31:34.747Z,72.03
2017-09-13T19:34:02.541Z,71.99
2017-09-13T19:36:31.631Z,71.27
2017-09-13T19:38:59.868Z,71.25
2017-09-13T19:41:29.180Z,70.84
2017-09-13T19:44:00.484Z,70.49
2017-09-13T19:46:28.809Z,70.33
2017-09-13T19:48:58.366Z,70.47
2017-09-13T19:51:27.457Z,70.43
2017-09-13T19:53:56.996Z,70.70
2017-09-13T19:56:28.652Z,70.93
2017-09-13T19:58:56.757Z,71.35
2017-09-13T20:01:25.225Z,71.21
2017-09-13T20:03:53.186Z,70.99
2017-09-13T20:06:20.918Z,71.66
2017-09-13T20:08:49.833Z,71.68
2017-09-13T20:11:17.585Z,71.68
2017-09-13T20:13:46.647Z,71.66
2017-09-13T20:16:14.725Z,71.92
2017-09-13T20:18:43.076Z,72.31
2017-09-13T20:21:15.949Z,72.29
2017-09-13T20:23:43.750Z,72.19
2017-09-13T20:26:12.965Z,72.34
2017-09-13T20:28:41.188Z,72.31
2017-09-13T20:31:09.138Z,72.53
2017-09-13T20:33:37.455Z,71.75
2017-09-13T20:36:05.982Z,71.69
2017-09-13T20:38:34.442Z,72.07
2017-09-13T20:41:05.776Z,71.95
2017-09-13T20:43:34.099Z,71.98
2017-09-13T20:46:05.306Z,72.13
2017-09-13T20:48:33.502Z,71.91
2017-09-13T20:51:05.675Z,71.90
2017-09-13T20:53:35.131Z,71.89
2017-09-13T20:56:03.146Z,71.47
2017-09-13T20:58:32.143Z,71.60
2017-09-13T21:01:01.395Z,71.26
2017-09-13T21:03:30.171Z,71.04
2017-09-13T21:06:04.181Z,71.64
2017-09-13T21:08:32.736Z,71.78
2017-09-13T21:11:01.359Z,71.93
2017-09-13T21:13:30.763Z,71.53
2017-09-13T21:15:58.994Z,72.04
2017-09-13T21:18:27.571Z,72.08
2017-09-13T21:20:56.519Z,72.02
2017-09-13T21:23:25.574Z,72.08
2017-09-13T21:25:54.116Z,71.86
2017-09-13T21:28:22.203Z,71.94
2017-09-13T21:30:51.790Z,72.14
2017-09-13T21:33:20.373Z,72.56
2017-09-13T21:35:49.128Z,72.46
2017-09-13T21:38:18.186Z,72.18
2017-09-13T21:40:47.873Z,72.12
2017-09-13T21:43:16.540Z,72.28
2017-09-13T21:45:44.336Z,72.77
2017-09-13T21:48:14.362Z,72.90
2017-09-13T21:50:42.206Z,73.37
2017-09-13T21:53:13.491Z,73.78
2017-09-13T21:55:41.327Z,73.71
2017-09-13T21:58:09.122Z,74.47
2017-09-13T22:00:38.692Z,74.74
2017-09-13T22:03:08.622Z,74.78
2017-09-13T22:05:38.001Z,75.26
2017-09-13T22:08:06.621Z,75.03
2017-09-13T22:10:34.767Z,74.92
2017-09-13T22:13:03.039Z,74.86
2017-09-13T22:15:32.634Z,75.03
2017-09-13T22:18:01.966Z,75.53
2017-09-13T22:20:29.777Z,75.18
2017-09-13T22:22:58.457Z,75.31
2017-09-13T22:25:28.006Z,75.39
2017-09-13T22:27:56.744Z,75.67
2017-09-13T22:30:24.460Z,75.67
2017-09-13T22:32:52.776Z,75.70
2017-09-13T22:35:21.444Z,76.20
2017-09-13T22:37:49.744Z,76.11
2017-09-13T22:40:17.461Z,75.87
2017-09-13T22:42:47.101Z,76.04
2017-09-13T22:45:15.760Z,76.34
2017-09-13T22:47:48.428Z,76.58
2017-09-13T22:50:18.823Z,76.46
2017-09-13T22:52:46.489Z,76.68
2017-09-13T22:55:15.458Z,76.97
2017-09-13T22:57:44.930Z,76.83
2017-09-13T23:00:13.003Z,77.28
2017-09-13T23:02:40.900Z,76.79
2017-09-13T23:05:10.495Z,76.89
2017-09-13T23:07:40.052Z,77.18
2017-09-13T23:10:11.066Z,77.20
2017-09-13T23:12:39.178Z,77.58
2017-09-13T23:15:09.474Z,77.64
2017-09-13T23:17:38.773Z,77.45
2017-09-13T23:20:08.402Z,77.90
2017-09-13T23:22:36.363Z,78.06
2017-09-13T23:25:04.143Z,78.04
2017-09-13T23:27:33.087Z,77.83
2017-09-13T23:30:01.100Z,78.10
2017-09-13T23:32:30.444Z,77.81
2017-09-13T23:34:58.171Z,77.92
2017-09-13T23:37:26.803Z,78.05
2017-09-13T23:39:54.474Z,78.20
2017-09-13T23:42:23.286Z,78.46
2017-09-13T23:44:53.511Z,78.52
2017-09-13T23:47:22.414Z,78.52
2017-09-13T23:49:50.561Z,79.07
2017-09-13T23:52:19.499Z,79.13
2017-09-13T23:54:48.824Z,79.09
2017-09-13T23:57:16.827Z,79.41
2017-09-13T23:59:44.942Z,79.45
